^^
Station Historical Data
Daily Summary for February 4, 2018 Units:  English    Metric   Both
« Previous Day
Next Day »
Daily Weekly Monthly Yearly Custom
  High: Low: Average:
Temperature: TemperatureF °F 67.6 °F 77.4 °F
Dew Point: DewpointF °F 46.9 °F 53.2 °F
Humidity: Humidity% 24% 45%
Wind Speed: WindSpeedMPHmph 0.0mph 2.2mph
Wind Gust: WindSpeedGustMPHmph - -
Wind- - ESE
Pressure: PressureIn in 29.54 in -
Precipitation: 0.00 in    
Historical Graphs
 
 
Tabular Data for February 4, 2018
Time Temperature Dew Point Pressure Wind Wind Speed Wind Gust Humidity Rainfall Rate (Hourly) solar Conditions
TemperatureF °F DewpointF °F PressureIn in Calm     Humidity% HourlyPrecipIn in SolarRadiationWatts/m^2 W/m2 Conditions
00:01 71.2 °F 57.9 °F 29.73 in Calm   1.0 mph 63% 0.00 in 0.0 W/m2
00:06 71.2 °F 57.9 °F 29.72 in Calm   1.0 mph 63% 0.00 in 0.0 W/m2
00:11 71.2 °F 57.9 °F 29.73 in SE 2.0 mph 2.0 mph 63% 0.00 in 0.0 W/m2
00:16 71.2 °F 57.9 °F 29.73 in Calm   2.0 mph 63% 0.00 in 0.0 W/m2
00:21 71.2 °F 57.9 °F 29.72 in Calm   2.0 mph 63% 0.00 in 0.0 W/m2
00:26 71.2 °F 57.9 °F 29.72 in ENE 0.9 mph 2.0 mph 63% 0.00 in 0.0 W/m2
00:31 71.2 °F 57.9 °F 29.72 in Calm   2.0 mph 63% 0.00 in 0.0 W/m2
00:37 71.1 °F 57.7 °F 29.72 in Calm   2.0 mph 63% 0.00 in 0.0 W/m2
00:42 71.1 °F 57.7 °F 29.73 in SE 0.9 mph 4.0 mph 63% 0.00 in 0.0 W/m2
00:47 71.1 °F 57.7 °F 29.73 in East 0.9 mph 3.0 mph 63% 0.00 in 0.0 W/m2
00:52 71.1 °F 58.6 °F 29.73 in ENE 4.0 mph 9.0 mph 65% 0.00 in 0.0 W/m2
00:57 70.9 °F 58.5 °F 29.73 in NE 2.9 mph 8.0 mph 65% 0.00 in 0.0 W/m2
01:02 70.5 °F 58.1 °F 29.73 in Calm   7.0 mph 65% 0.00 in 0.0 W/m2
01:07 70.2 °F 57.9 °F 29.73 in ESE 2.0 mph 5.0 mph 65% 0.00 in 0.0 W/m2
01:12 70.0 °F 57.2 °F 29.73 in East 6.9 mph 9.0 mph 64% 0.00 in 0.0 W/m2
01:18 69.6 °F 56.5 °F 29.73 in ESE 6.0 mph 6.0 mph 63% 0.00 in 0.0 W/m2
01:23 69.3 °F 55.8 °F 29.73 in NNE 4.9 mph 7.0 mph 62% 0.00 in 0.0 W/m2
01:29 68.7 °F 55.2 °F 29.73 in Calm   4.0 mph 62% 0.00 in 0.0 W/m2
01:34 68.7 °F 55.2 °F 29.73 in NE 2.9 mph 8.0 mph 62% 0.00 in 0.0 W/m2
01:39 68.5 °F 55.0 °F 29.73 in NNE 2.0 mph 5.0 mph 62% 0.00 in 0.0 W/m2
01:44 68.5 °F 54.5 °F 29.73 in NE 2.0 mph 4.0 mph 61% 0.00 in 0.0 W/m2
01:49 68.4 °F 54.3 °F 29.72 in ENE 4.0 mph 6.0 mph 61% 0.00 in 0.0 W/m2
01:54 68.4 °F 54.3 °F 29.72 in ESE 4.0 mph 8.0 mph 61% 0.00 in 0.0 W/m2
01:59 68.4 °F 54.9 °F 29.72 in East 4.9 mph 6.0 mph 62% 0.00 in 0.0 W/m2
02:04 68.2 °F 54.7 °F 29.71 in East 2.0 mph 2.0 mph 62% 0.00 in 0.0 W/m2
02:10 68.2 °F 55.0 °F 29.71 in NNW 0.9 mph 2.0 mph 63% 0.00 in 0.0 W/m2
02:15 68.2 °F 54.7 °F 29.70 in NNW 0.9 mph 4.0 mph 62% 0.00 in 0.0 W/m2
02:20 68.2 °F 54.7 °F 29.70 in Calm   1.0 mph 62% 0.00 in 0.0 W/m2
02:25 68.0 °F 54.5 °F 29.70 in Calm   1.0 mph 62% 0.00 in 0.0 W/m2
02:30 68.0 °F 54.5 °F 29.70 in Calm     62% 0.00 in 0.0 W/m2
02:35 68.2 °F 54.1 °F 29.69 in Calm   1.0 mph 61% 0.00 in 0.0 W/m2
02:40 68.2 °F 53.8 °F 29.69 in East 2.0 mph 2.0 mph 60% 0.00 in 0.0 W/m2
02:45 68.4 °F 53.1 °F 29.69 in Calm   3.0 mph 58% 0.00 in 0.0 W/m2
02:50 68.7 °F 50.9 °F 29.68 in Calm   8.0 mph 53% 0.00 in 0.0 W/m2
02:56 69.3 °F 49.8 °F 29.68 in NNW 2.9 mph 6.0 mph 50% 0.00 in 0.0 W/m2
03:01 70.0 °F 50.5 °F 29.67 in SE 0.9 mph 3.0 mph 50% 0.00 in 0.0 W/m2
03:06 70.3 °F 50.9 °F 29.67 in West 2.9 mph 5.0 mph 50% 0.00 in 0.0 W/m2
03:11 70.5 °F 51.4 °F 29.67 in Calm   1.0 mph 51% 0.00 in 0.0 W/m2
03:16 70.5 °F 51.4 °F 29.67 in Calm   2.0 mph 51% 0.00 in 0.0 W/m2
03:21 70.5 °F 52.0 °F 29.67 in Calm   1.0 mph 52% 0.00 in 0.0 W/m2
03:26 70.5 °F 51.4 °F 29.67 in Calm     51% 0.00 in 0.0 W/m2
03:31 70.3 °F 51.4 °F 29.66 in Calm   3.0 mph 51% 0.00 in 0.0 W/m2
03:37 70.3 °F 51.8 °F 29.66 in Calm     52% 0.00 in 0.0 W/m2
03:42 70.3 °F 51.8 °F 29.66 in Calm     52% 0.00 in 0.0 W/m2
03:47 70.2 °F 51.8 °F 29.65 in Calm   1.0 mph 52% 0.00 in 0.0 W/m2
03:52 70.2 °F 51.8 °F 29.65 in Calm   2.0 mph 52% 0.00 in 0.0 W/m2
03:57 70.3 °F 51.8 °F 29.65 in Calm   3.0 mph 52% 0.00 in 0.0 W/m2
04:02 70.3 °F 51.8 °F 29.65 in Calm     52% 0.00 in 0.0 W/m2
04:07 70.3 °F 51.8 °F 29.65 in Calm     52% 0.00 in 0.0 W/m2
04:12 70.3 °F 50.9 °F 29.66 in Calm   2.0 mph 50% 0.00 in 0.0 W/m2
04:18 70.9 °F 48.6 °F 29.66 in SE 8.1 mph 11.0 mph 45% 0.00 in 0.0 W/m2
04:23 72.0 °F 48.9 °F 29.66 in SSE 2.0 mph 9.0 mph 44% 0.00 in 0.0 W/m2
04:28 72.7 °F 48.2 °F 29.66 in SE 4.0 mph 5.0 mph 42% 0.00 in 0.0 W/m2
04:33 73.2 °F 48.7 °F 29.66 in SE 4.0 mph 10.0 mph 42% 0.00 in 0.0 W/m2
04:38 73.6 °F 49.1 °F 29.66 in NE 2.9 mph 6.0 mph 42% 0.00 in 0.0 W/m2
04:43 73.8 °F 49.3 °F 29.66 in ESE 4.0 mph 9.0 mph 42% 0.00 in 0.0 W/m2
04:48 73.8 °F 49.3 °F 29.66 in ENE 6.9 mph 7.0 mph 42% 0.00 in 0.0 W/m2
04:53 73.2 °F 51.8 °F 29.67 in NE 6.0 mph 12.0 mph 47% 0.00 in 0.0 W/m2
04:58 72.5 °F 52.3 °F 29.66 in NE 2.0 mph 6.0 mph 49% 0.00 in 0.0 W/m2
05:03 72.0 °F 52.3 °F 29.67 in SE 0.9 mph 3.0 mph 50% 0.00 in 0.0 W/m2
05:08 71.4 °F 52.9 °F 29.67 in ESE 0.9 mph 6.0 mph 52% 0.00 in 0.0 W/m2
05:13 71.1 °F 53.1 °F 29.67 in ENE 4.9 mph 6.0 mph 53% 0.00 in 0.0 W/m2
05:18 70.7 °F 53.2 °F 29.67 in East 4.0 mph 5.0 mph 54% 0.00 in 0.0 W/m2
05:24 70.3 °F 52.9 °F 29.67 in NNE 2.0 mph 6.0 mph 54% 0.00 in 0.0 W/m2
05:29 70.0 °F 53.1 °F 29.67 in NE 2.0 mph 7.0 mph 55% 0.00 in 0.0 W/m2
05:35 69.6 °F 53.2 °F 29.67 in South 0.9 mph 3.0 mph 56% 0.00 in 0.0 W/m2
05:40 69.4 °F 53.1 °F 29.67 in Calm   7.0 mph 56% 0.00 in 0.0 W/m2
05:45 69.3 °F 52.9 °F 29.67 in ENE 4.9 mph 5.0 mph 56% 0.00 in 0.0 W/m2
05:50 69.3 °F 52.9 °F 29.68 in NE 6.0 mph 7.0 mph 56% 0.00 in 0.0 W/m2
05:55 69.3 °F 52.9 °F 29.68 in North 4.9 mph 8.0 mph 56% 0.00 in 0.0 W/m2
06:00 69.1 °F 52.7 °F 29.68 in NE 0.9 mph 9.0 mph 56% 0.00 in 0.0 W/m2
06:06 69.1 °F 53.2 °F 29.68 in NE 4.9 mph 10.0 mph 57% 0.00 in 0.0 W/m2
06:11 68.7 °F 52.9 °F 29.68 in East 6.0 mph 9.0 mph 57% 0.00 in 0.0 W/m2
06:16 68.7 °F 53.4 °F 29.68 in Calm   6.0 mph 58% 0.00 in 0.0 W/m2
06:22 68.5 °F 53.6 °F 29.68 in ESE 0.9 mph 5.0 mph 59% 0.00 in 0.0 W/m2
06:27 68.4 °F 53.4 °F 29.68 in NE 0.9 mph 5.0 mph 59% 0.00 in 0.0 W/m2
06:32 68.4 °F 53.4 °F 29.68 in NE 0.9 mph 7.0 mph 59% 0.00 in 0.0 W/m2
06:38 68.2 °F 53.8 °F 29.68 in NE 6.0 mph 8.0 mph 60% 0.00 in 0.0 W/m2
06:43 68.0 °F 53.6 °F 29.68 in ESE 2.0 mph 6.0 mph 60% 0.00 in 7.0 W/m2
06:48 67.8 °F 53.4 °F 29.68 in ENE 2.9 mph 5.0 mph 60% 0.00 in 11.0 W/m2
06:54 67.8 °F 53.4 °F 29.67 in ENE 2.0 mph 3.0 mph 60% 0.00 in 18.0 W/m2
06:59 67.6 °F 53.8 °F 29.68 in ENE 0.9 mph 6.0 mph 61% 0.00 in 23.0 W/m2
07:04 67.6 °F 53.8 °F 29.68 in Calm     61% 0.00 in 30.0 W/m2
07:10 67.6 °F 53.8 °F 29.68 in Calm   3.0 mph 61% 0.00 in 39.0 W/m2
07:15 67.6 °F 54.1 °F 29.68 in Calm   1.0 mph 62% 0.00 in 46.0 W/m2
07:20 67.6 °F 54.1 °F 29.68 in Calm   2.0 mph 62% 0.00 in 54.0 W/m2
07:26 67.6 °F 53.8 °F 29.68 in Calm   1.0 mph 61% 0.00 in 63.0 W/m2
07:31 67.8 °F 54.0 °F 29.68 in Calm     61% 0.00 in 70.0 W/m2
07:36 67.8 °F 54.3 °F 29.68 in Calm     62% 0.00 in 81.0 W/m2
07:42 68.0 °F 54.5 °F 29.68 in Calm     62% 0.00 in 93.0 W/m2
07:47 68.2 °F 54.7 °F 29.68 in Calm     62% 0.00 in 111.0 W/m2
07:52 68.4 °F 54.9 °F 29.68 in Calm   1.0 mph 62% 0.00 in 125.0 W/m2
07:58 68.5 °F 54.1 °F 29.67 in Calm   2.0 mph 60% 0.00 in 142.0 W/m2
08:04 68.9 °F 54.0 °F 29.68 in Calm     59% 0.00 in 153.0 W/m2
08:09 69.3 °F 54.3 °F 29.68 in SW 0.9 mph 2.0 mph 59% 0.00 in 156.0 W/m2
08:14 69.6 °F 54.7 °F 29.68 in WSW 2.0 mph 3.0 mph 59% 0.00 in 162.0 W/m2
08:19 70.0 °F 55.4 °F 29.68 in Calm   3.0 mph 60% 0.00 in 151.0 W/m2
08:24 70.2 °F 54.7 °F 29.68 in Calm     58% 0.00 in 163.0 W/m2
08:30 70.5 °F 55.0 °F 29.68 in Calm   1.0 mph 58% 0.00 in 172.0 W/m2
08:35 71.1 °F 54.1 °F 29.68 in SW 3.0 mph 3.0 mph 55% 0.00 in 202.0 W/m2
08:40 71.2 °F 53.8 °F 29.68 in Calm     54% 0.00 in 176.0 W/m2
08:46 71.8 °F 54.3 °F 29.68 in Calm     54% 0.00 in 185.0 W/m2
08:51 72.1 °F 54.5 °F 29.68 in WNW 0.9 mph 1.0 mph 54% 0.00 in 195.0 W/m2
08:56 72.3 °F 54.1 °F 29.68 in West 0.9 mph 2.0 mph 53% 0.00 in 207.0 W/m2
09:02 72.9 °F 54.1 °F 29.68 in Calm     52% 0.00 in 237.0 W/m2
09:07 73.2 °F 54.5 °F 29.68 in South 0.9 mph 1.0 mph 52% 0.00 in 274.0 W/m2
09:12 73.9 °F 53.6 °F 29.68 in Calm     49% 0.00 in 378.0 W/m2
09:18 74.7 °F 52.5 °F 29.68 in Calm   2.0 mph 46% 0.00 in 316.0 W/m2
09:24 75.6 °F 53.2 °F 29.69 in Calm     46% 0.00 in 536.0 W/m2
09:29 76.5 °F 53.6 °F 29.68 in Calm   1.0 mph 45% 0.00 in 591.0 W/m2
09:34 77.4 °F 53.8 °F 29.68 in Calm   2.0 mph 44% 0.00 in 362.0 W/m2
09:39 78.1 °F 53.1 °F 29.69 in Calm   1.0 mph 42% 0.00 in 246.0 W/m2
09:44 78.4 °F 52.7 °F 29.68 in East 0.9 mph 2.0 mph 41% 0.00 in 234.0 W/m2
09:50 79.0 °F 48.2 °F 29.68 in East 4.0 mph 6.0 mph 34% 0.00 in 294.0 W/m2
09:55 79.7 °F 48.0 °F 29.68 in SE 2.9 mph 9.0 mph 33% 0.00 in 357.0 W/m2
10:00 80.4 °F 46.9 °F 29.69 in ESE 8.1 mph 11.0 mph 31% 0.00 in 844.0 W/m2
10:06 81.3 °F 47.8 °F 29.69 in SE 0.9 mph 11.0 mph 31% 0.00 in 387.0 W/m2
10:11 81.7 °F 48.0 °F 29.68 in ENE 4.0 mph 9.0 mph 31% 0.00 in 722.0 W/m2
10:16 82.0 °F 47.5 °F 29.69 in ESE 2.9 mph 11.0 mph 30% 0.00 in 587.0 W/m2
10:22 82.8 °F 49.1 °F 29.69 in ENE 0.9 mph 8.0 mph 31% 0.00 in 645.0 W/m2
10:28 83.1 °F 49.3 °F 29.69 in NE 0.9 mph 11.0 mph 31% 0.00 in 519.0 W/m2
10:33 83.1 °F 50.2 °F 29.69 in SE 4.9 mph 13.0 mph 32% 0.00 in 661.0 W/m2
10:39 83.5 °F 52.2 °F 29.69 in East 0.9 mph 8.0 mph 34% 0.00 in 424.0 W/m2
10:44 83.5 °F 51.4 °F 29.68 in East 2.9 mph 11.0 mph 33% 0.00 in 506.0 W/m2
10:49 83.7 °F 52.3 °F 29.69 in NE 0.9 mph 9.0 mph 34% 0.00 in 540.0 W/m2
10:54 84.0 °F 52.7 °F 29.68 in ESE 2.9 mph 9.0 mph 34% 0.00 in 642.0 W/m2
11:00 84.6 °F 53.1 °F 29.69 in NNE 2.0 mph 5.0 mph 34% 0.00 in 854.0 W/m2
11:05 85.3 °F 52.9 °F 29.68 in NE 4.9 mph 9.0 mph 33% 0.00 in 666.0 W/m2
11:10 85.6 °F 53.2 °F 29.69 in NNE 6.0 mph 11.0 mph 33% 0.00 in 656.0 W/m2
11:16 86.2 °F 52.9 °F 29.68 in ENE 6.9 mph 14.0 mph 32% 0.00 in 745.0 W/m2
11:21 86.4 °F 53.1 °F 29.68 in East 8.1 mph 10.0 mph 32% 0.00 in 756.0 W/m2
11:26 86.5 °F 53.2 °F 29.68 in ESE 6.9 mph 11.0 mph 32% 0.00 in 689.0 W/m2
11:32 86.5 °F 54.0 °F 29.68 in SSE 2.0 mph 10.0 mph 33% 0.00 in 722.0 W/m2
11:37 86.5 °F 53.2 °F 29.68 in Calm   9.0 mph 32% 0.00 in 661.0 W/m2
11:42 86.5 °F 53.2 °F 29.67 in NNE 4.0 mph 10.0 mph 32% 0.00 in 742.0 W/m2
11:47 86.7 °F 52.5 °F 29.67 in NE 6.0 mph 11.0 mph 31% 0.00 in 877.0 W/m2
11:53 87.1 °F 52.7 °F 29.67 in North 4.9 mph 9.0 mph 31% 0.00 in 963.0 W/m2
11:58 87.4 °F 53.1 °F 29.67 in North 0.9 mph 8.0 mph 31% 0.00 in 1252.0 W/m2
12:03 88.2 °F 52.9 °F 29.67 in ENE 6.0 mph 10.0 mph 30% 0.00 in 1134.0 W/m2
12:08 88.3 °F 53.1 °F 29.67 in ENE 6.0 mph 6.0 mph 30% 0.00 in 654.0 W/m2
12:14 89.1 °F 52.7 °F 29.66 in NNE 2.9 mph 7.0 mph 29% 0.00 in 582.0 W/m2
12:19 89.1 °F 52.7 °F 29.66 in NNE 4.9 mph 10.0 mph 29% 0.00 in 635.0 W/m2
12:24 89.1 °F 52.7 °F 29.66 in NE 6.0 mph 9.0 mph 29% 0.00 in 737.0 W/m2
12:29 89.1 °F 53.6 °F 29.66 in North 6.0 mph 10.0 mph 30% 0.00 in 703.0 W/m2
12:34 88.9 °F 52.5 °F 29.66 in Calm   3.0 mph 29% 0.00 in 640.0 W/m2
12:39 88.9 °F 53.4 °F 29.66 in NNE 6.9 mph 9.0 mph 30% 0.00 in 547.0 W/m2
12:45 88.5 °F 52.2 °F 29.66 in NNW 6.9 mph 15.0 mph 29% 0.00 in 679.0 W/m2
12:50 88.9 °F 53.4 °F 29.65 in NE 6.0 mph 11.0 mph 30% 0.00 in 1051.0 W/m2
12:55 89.2 °F 52.9 °F 29.65 in NNW 2.0 mph 9.0 mph 29% 0.00 in 737.0 W/m2
13:00 89.4 °F 54.0 °F 29.65 in SE 0.9 mph 8.0 mph 30% 0.00 in 707.0 W/m2
13:06 89.2 °F 52.9 °F 29.65 in NNE 6.0 mph 7.0 mph 29% 0.00 in 415.0 W/m2
13:11 89.8 °F 53.2 °F 29.65 in NNW 4.0 mph 10.0 mph 29% 0.00 in 1452.0 W/m2
13:16 90.1 °F 53.6 °F 29.65 in NNW 2.9 mph 13.0 mph 29% 0.00 in 809.0 W/m2
13:21 90.1 °F 52.7 °F 29.65 in SSE 2.0 mph 7.0 mph 28% 0.00 in 547.0 W/m2
13:26 89.8 °F 53.2 °F 29.64 in NE 6.0 mph 9.0 mph 29% 0.00 in 610.0 W/m2
13:31 89.4 °F 53.1 °F 29.65 in ENE 4.0 mph 9.0 mph 29% 0.00 in 661.0 W/m2
13:37 90.1 °F 52.7 °F 29.64 in NE 2.9 mph 6.0 mph 28% 0.00 in 691.0 W/m2
13:42 90.5 °F 52.9 °F 29.64 in East 2.9 mph 13.0 mph 28% 0.00 in 1232.0 W/m2
13:47 90.9 °F 53.2 °F 29.64 in NE 6.0 mph 11.0 mph 28% 0.00 in 780.0 W/m2
13:53 90.9 °F 53.2 °F 29.64 in North 11.0 mph 12.0 mph 28% 0.00 in 884.0 W/m2
13:59 90.9 °F 52.3 °F 29.63 in NE 4.0 mph 12.0 mph 27% 0.00 in 942.0 W/m2
14:04 91.2 °F 52.5 °F 29.63 in NNE 6.9 mph 7.0 mph 27% 0.00 in 1025.0 W/m2
14:09 91.0 °F 53.4 °F 29.64 in ENE 8.1 mph 13.0 mph 28% 0.00 in 329.0 W/m2
14:14 90.0 °F 52.5 °F 29.63 in NE 0.9 mph 9.0 mph 28% 0.00 in 357.0 W/m2
14:19 89.4 °F 53.1 °F 29.63 in SE 2.9 mph 7.0 mph 29% 0.00 in 364.0 W/m2
14:24 89.6 °F 53.1 °F 29.63 in NNE 4.9 mph 7.0 mph 29% 0.00 in 896.0 W/m2
14:29 90.0 °F 52.5 °F 29.62 in SE 2.9 mph 8.0 mph 28% 0.00 in 983.0 W/m2
14:34 90.1 °F 52.7 °F 29.62 in East 2.9 mph 12.0 mph 28% 0.00 in 1028.0 W/m2
14:39 90.3 °F 52.9 °F 29.62 in NE 4.9 mph 10.0 mph 28% 0.00 in 1030.0 W/m2
14:45 91.2 °F 52.5 °F 29.62 in ESE 6.0 mph 11.0 mph 27% 0.00 in 657.0 W/m2
14:50 91.2 °F 52.5 °F 29.62 in East 6.0 mph 10.0 mph 27% 0.00 in 589.0 W/m2
14:55 91.0 °F 52.3 °F 29.61 in NE 4.0 mph 9.0 mph 27% 0.00 in 503.0 W/m2
15:00 90.9 °F 52.3 °F 29.62 in ENE 6.0 mph 11.0 mph 27% 0.00 in 413.0 W/m2
15:05 90.9 °F 53.2 °F 29.61 in SSE 2.9 mph 9.0 mph 28% 0.00 in 360.0 W/m2
15:10 90.7 °F 53.1 °F 29.61 in NNW 0.9 mph 5.0 mph 28% 0.00 in 582.0 W/m2
15:15 90.9 °F 53.2 °F 29.60 in North 4.0 mph 6.0 mph 28% 0.00 in 962.0 W/m2
15:20 91.8 °F 52.0 °F 29.60 in SSE 6.9 mph 9.0 mph 26% 0.00 in 954.0 W/m2
15:25 92.5 °F 52.5 °F 29.60 in ESE 0.9 mph 6.0 mph 26% 0.00 in 988.0 W/m2
15:30 92.7 °F 52.7 °F 29.59 in NNE 4.9 mph 10.0 mph 26% 0.00 in 933.0 W/m2
15:35 92.7 °F 52.7 °F 29.59 in NE 4.9 mph 8.0 mph 26% 0.00 in 772.0 W/m2
15:40 92.5 °F 52.5 °F 29.59 in ESE 4.0 mph 8.0 mph 26% 0.00 in 626.0 W/m2
15:46 92.3 °F 52.5 °F 29.58 in NE 0.9 mph 10.0 mph 26% 0.00 in 756.0 W/m2
15:51 92.1 °F 51.3 °F 29.58 in SSE 2.9 mph 7.0 mph 25% 0.00 in 369.0 W/m2
15:56 91.9 °F 51.1 °F 29.57 in NE 4.0 mph 5.0 mph 25% 0.00 in 285.0 W/m2
16:01 91.9 °F 52.2 °F 29.57 in NE 2.0 mph 4.0 mph 26% 0.00 in 364.0 W/m2
16:06 91.9 °F 51.1 °F 29.57 in SE 2.9 mph 7.0 mph 25% 0.00 in 338.0 W/m2
16:11 91.6 °F 49.6 °F 29.57 in ESE 2.9 mph 8.0 mph 24% 0.00 in 301.0 W/m2
16:16 91.2 °F 50.5 °F 29.57 in East 6.9 mph 9.0 mph 25% 0.00 in 295.0 W/m2
16:21 90.7 °F 52.2 °F 29.57 in ENE 2.9 mph 8.0 mph 27% 0.00 in 265.0 W/m2
16:26 90.3 °F 50.7 °F 29.56 in ENE 2.9 mph 4.0 mph 26% 0.00 in 294.0 W/m2
16:31 90.3 °F 51.8 °F 29.56 in Calm   7.0 mph 27% 0.00 in 728.0 W/m2
16:37 90.7 °F 52.2 °F 29.56 in East 6.0 mph 11.0 mph 27% 0.00 in 538.0 W/m2
16:42 90.9 °F 51.3 °F 29.55 in SW 2.9 mph 9.0 mph 26% 0.00 in 353.0 W/m2
16:47 91.0 °F 50.4 °F 29.55 in ENE 0.9 mph 5.0 mph 25% 0.00 in 257.0 W/m2
16:52 91.0 °F 50.4 °F 29.55 in NE 4.9 mph 5.0 mph 25% 0.00 in 246.0 W/m2
16:57 91.0 °F 50.4 °F 29.54 in ESE 2.9 mph 7.0 mph 25% 0.00 in 255.0 W/m2
17:02 90.7 °F 51.1 °F 29.54 in SSE 0.9 mph 8.0 mph 26% 0.00 in 232.0 W/m2
17:07 90.1 °F 51.6 °F 29.54 in Calm   11.0 mph 27% 0.00 in 188.0 W/m2
17:12 90.0 °F 52.5 °F 29.54 in NE 2.0 mph 8.0 mph 28% 0.00 in 167.0 W/m2
17:18 89.8 °F 52.3 °F 29.54 in Calm   6.0 mph 28% 0.00 in 156.0 W/m2
17:23 89.8 °F 51.3 °F 29.54 in SSE 4.0 mph 9.0 mph 27% 0.00 in 107.0 W/m2
17:28 89.4 °F 51.1 °F 29.54 in East 4.0 mph 8.0 mph 27% 0.00 in 120.0 W/m2
17:33 89.2 °F 50.9 °F 29.54 in East 0.9 mph 3.0 mph 27% 0.00 in 144.0 W/m2
17:38 89.1 °F 50.7 °F 29.54 in ENE 0.9 mph 13.0 mph 27% 0.00 in 149.0 W/m2
17:43 88.9 °F 50.5 °F 29.54 in NNE 2.9 mph 9.0 mph 27% 0.00 in 137.0 W/m2
17:48 88.5 °F 53.1 °F 29.54 in East 12.1 mph 17.0 mph 30% 0.00 in 97.0 W/m2
17:53 87.6 °F 52.3 °F 29.55 in SSE 8.9 mph 15.0 mph 30% 0.00 in 81.0 W/m2
17:58 87.1 °F 53.6 °F 29.55 in East 6.9 mph 10.0 mph 32% 0.00 in 83.0 W/m2
18:03 86.5 °F 53.2 °F 29.55 in ENE 2.0 mph 12.0 mph 32% 0.00 in 74.0 W/m2
18:09 86.2 °F 52.9 °F 29.55 in East 4.0 mph 8.0 mph 32% 0.00 in 65.0 W/m2
18:14 85.8 °F 52.5 °F 29.55 in ESE 0.9 mph 11.0 mph 32% 0.00 in 62.0 W/m2
18:19 85.6 °F 52.3 °F 29.55 in Calm   8.0 mph 32% 0.00 in 54.0 W/m2
18:24 85.5 °F 52.2 °F 29.56 in NE 2.9 mph 8.0 mph 32% 0.00 in 25.0 W/m2
18:29 85.3 °F 52.2 °F 29.57 in NE 2.9 mph 11.0 mph 32% 0.00 in 14.0 W/m2
18:34 85.3 °F 52.2 °F 29.57 in SE 0.9 mph 4.0 mph 32% 0.00 in 7.0 W/m2
18:39 84.2 °F 55.8 °F 29.58 in West 4.9 mph 8.0 mph 38% 0.00 in 5.0 W/m2
18:44 82.2 °F 56.1 °F 29.59 in West 4.9 mph 8.0 mph 41% 0.00 in 5.0 W/m2
18:50 80.4 °F 57.2 °F 29.59 in WSW 6.9 mph 8.0 mph 45% 0.00 in 0.0 W/m2
18:55 78.6 °F 56.1 °F 29.60 in West 2.0 mph 13.0 mph 46% 0.00 in 0.0 W/m2
19:01 76.8 °F 57.4 °F 29.61 in SW 6.9 mph 12.0 mph 51% 0.00 in 0.0 W/m2
19:06 74.3 °F 56.7 °F 29.61 in WSW 8.1 mph 14.0 mph 54% 0.00 in 0.0 W/m2
19:12 72.3 °F 56.7 °F 29.62 in Calm   6.0 mph 58% 0.00 in 0.0 W/m2
19:17 71.8 °F 56.7 °F 29.62 in Calm   5.0 mph 59% 0.00 in 0.0 W/m2
19:22 71.4 °F 56.3 °F 29.62 in Calm   6.0 mph 59% 0.00 in 0.0 W/m2
19:27 71.2 °F 55.8 °F 29.62 in SW 0.9 mph 2.0 mph 58% 0.00 in 0.0 W/m2
19:32 71.1 °F 55.6 °F 29.62 in West 0.9 mph 1.0 mph 58% 0.00 in 0.0 W/m2
19:37 71.1 °F 55.6 °F 29.62 in Calm   3.0 mph 58% 0.00 in 0.0 W/m2
19:42 71.1 °F 55.0 °F 29.63 in ESE 0.9 mph 4.0 mph 57% 0.00 in 0.0 W/m2
19:47 71.4 °F 54.5 °F 29.62 in SE 2.0 mph 3.0 mph 55% 0.00 in 0.0 W/m2
19:52 72.0 °F 54.0 °F 29.63 in SE 2.0 mph 5.0 mph 53% 0.00 in 0.0 W/m2
19:58 72.1 °F 53.6 °F 29.63 in South 0.9 mph 6.0 mph 52% 0.00 in 0.0 W/m2
20:03 72.7 °F 52.9 °F 29.64 in Calm   2.0 mph 50% 0.00 in 0.0 W/m2
20:08 73.0 °F 52.2 °F 29.65 in Calm   5.0 mph 48% 0.00 in 0.0 W/m2
20:13 73.6 °F 52.2 °F 29.65 in Calm   1.0 mph 47% 0.00 in 0.0 W/m2
20:18 73.8 °F 52.3 °F 29.65 in Calm   1.0 mph 47% 0.00 in 0.0 W/m2
20:23 74.1 °F 52.0 °F 29.65 in Calm   5.0 mph 46% 0.00 in 0.0 W/m2
20:28 74.5 °F 52.3 °F 29.65 in WSW 0.9 mph 9.0 mph 46% 0.00 in 0.0 W/m2
20:33 74.7 °F 52.5 °F 29.65 in WSW 0.9 mph 5.0 mph 46% 0.00 in 0.0 W/m2
20:39 74.7 °F 52.5 °F 29.65 in Calm   2.0 mph 46% 0.00 in 0.0 W/m2
20:44 74.7 °F 53.1 °F 29.64 in Calm     47% 0.00 in 0.0 W/m2
20:49 74.7 °F 53.1 °F 29.64 in Calm   1.0 mph 47% 0.00 in 0.0 W/m2
20:54 74.7 °F 54.3 °F 29.65 in Calm   3.0 mph 49% 0.00 in 0.0 W/m2
20:59 74.5 °F 54.1 °F 29.64 in Calm     49% 0.00 in 0.0 W/m2
21:04 74.5 °F 54.7 °F 29.65 in Calm     50% 0.00 in 0.0 W/m2
21:09 74.5 °F 54.7 °F 29.65 in Calm   1.0 mph 50% 0.00 in 0.0 W/m2
21:15 74.5 °F 55.2 °F 29.65 in Calm   2.0 mph 51% 0.00 in 0.0 W/m2
21:20 74.1 °F 55.9 °F 29.65 in WNW 0.9 mph 5.0 mph 53% 0.00 in 0.0 W/m2
21:25 73.8 °F 55.6 °F 29.66 in WSW 2.9 mph 6.0 mph 53% 0.00 in 0.0 W/m2
21:30 73.6 °F 55.4 °F 29.66 in Calm   3.0 mph 53% 0.00 in 0.0 W/m2
21:35 73.2 °F 55.6 °F 29.66 in WSW 0.9 mph 3.0 mph 54% 0.00 in 0.0 W/m2
21:40 73.2 °F 56.1 °F 29.66 in Calm   3.0 mph 55% 0.00 in 0.0 W/m2
21:45 73.0 °F 55.9 °F 29.66 in NW 2.0 mph 3.0 mph 55% 0.00 in 0.0 W/m2
21:50 72.9 °F 55.8 °F 29.66 in Calm   3.0 mph 55% 0.00 in 0.0 W/m2
21:55 72.9 °F 55.8 °F 29.66 in Calm   2.0 mph 55% 0.00 in 0.0 W/m2
22:01 72.9 °F 55.2 °F 29.66 in Calm   1.0 mph 54% 0.00 in 0.0 W/m2
22:06 72.9 °F 55.2 °F 29.66 in Calm   3.0 mph 54% 0.00 in 0.0 W/m2
22:11 72.9 °F 55.2 °F 29.67 in Calm     54% 0.00 in 0.0 W/m2
22:16 72.9 °F 55.2 °F 29.67 in Calm   1.0 mph 54% 0.00 in 0.0 W/m2
22:21 72.9 °F 55.2 °F 29.67 in Calm     54% 0.00 in 0.0 W/m2
22:27 72.9 °F 55.2 °F 29.67 in Calm     54% 0.00 in 0.0 W/m2
22:32 72.9 °F 55.8 °F 29.67 in NW 0.9 mph 3.0 mph 55% 0.00 in 0.0 W/m2
22:37 72.7 °F 55.6 °F 29.67 in WSW 2.0 mph 3.0 mph 55% 0.00 in 0.0 W/m2
22:42 72.7 °F 55.6 °F 29.67 in Calm   2.0 mph 55% 0.00 in 0.0 W/m2
22:48 72.7 °F 55.6 °F 29.67 in Calm     55% 0.00 in 0.0 W/m2
22:53 72.7 °F 55.0 °F 29.68 in Calm   2.0 mph 54% 0.00 in 0.0 W/m2
22:59 72.7 °F 55.0 °F 29.68 in NW 2.9 mph 3.0 mph 54% 0.00 in 0.0 W/m2
23:05 72.7 °F 55.0 °F 29.68 in Calm   1.0 mph 54% 0.00 in 0.0 W/m2
23:10 72.7 °F 55.0 °F 29.68 in NE 0.9 mph 5.0 mph 54% 0.00 in 0.0 W/m2
23:15 72.3 °F 54.7 °F 29.68 in NNE 2.9 mph 3.0 mph 54% 0.00 in 0.0 W/m2
23:20 72.1 °F 54.5 °F 29.68 in NNE 2.0 mph 3.0 mph 54% 0.00 in 0.0 W/m2
23:25 72.1 °F 54.5 °F 29.68 in Calm   3.0 mph 54% 0.00 in 0.0 W/m2
23:30 72.0 °F 54.9 °F 29.69 in Calm   1.0 mph 55% 0.00 in 0.0 W/m2
23:35 72.0 °F 54.9 °F 29.69 in Calm   1.0 mph 55% 0.00 in 0.0 W/m2
23:41 72.0 °F 54.3 °F 29.70 in Calm   3.0 mph 54% 0.00 in 0.0 W/m2
23:46 72.0 °F 54.3 °F 29.69 in Calm     54% 0.00 in 0.0 W/m2
23:51 72.0 °F 54.3 °F 29.69 in Calm   1.0 mph 54% 0.00 in 0.0 W/m2
23:56 72.0 °F 54.3 °F 29.68 in Calm     54% 0.00 in 0.0 W/m2
Olympia, Windhoek, Namibia
Compliments of Weather Underground - 3.25 mb